sensor_id;sensor_type;location;lat;lon;timestamp;temperature;humidity
1992;DHT22;997;48.448;8.924;2023-03-13T04:03:28;10.50;99.90
1992;DHT22;997;48.448;8.924;2023-03-13T04:05:53;10.40;99.90
1992;DHT22;997;48.448;8.924;2023-03-13T04:08:19;10.40;99.90
1992;DHT22;997;48.448;8.924;2023-03-13T04:10:45;10.40;99.90
1992;DHT22;997;48.448;8.924;2023-03-13T04:13:10;10.40;99.90
1992;DHT22;997;48.448;8.924;2023-03-13T04:15:38;10.50;99.90
1992;DHT22;997;48.448;8.924;2023-03-13T04:18:03;10.50;99.90
1992;DHT22;997;48.448;8.924;2023-03-13T04:20:29;10.40;99.90
1992;DHT22;997;48.448;8.924;2023-03-13T04:22:55;10.50;99.90
1992;DHT22;997;48.448;8.924;2023-03-13T04:25:21;10.50;99.90
1992;DHT22;997;48.448;8.924;2023-03-13T04:27:47;10.50;99.90
1992;DHT22;997;48.448;8.924;2023-03-13T04:30:12;10.40;99.90
1992;DHT22;997;48.448;8.924;2023-03-13T04:32:38;10.40;99.90
1992;DHT22;997;48.448;8.924;2023-03-13T04:35:04;10.40;99.90
1992;DHT22;997;48.448;8.924;2023-03-13T04:37:30;10.50;99.90
1992;DHT22;997;48.448;8.924;2023-03-13T04:39:56;10.50;99.90
1992;DHT22;997;48.448;8.924;2023-03-13T04:42:21;10.40;99.90
1992;DHT22;997;48.448;8.924;2023-03-13T04:44:47;10.40;99.90
1992;DHT22;997;48.448;8.924;2023-03-13T04:47:13;10.50;99.90
1992;DHT22;997;48.448;8.924;2023-03-13T04:49:38;10.50;99.90
1992;DHT22;997;48.448;8.924;2023-03-13T04:52:04;10.40;99.90
1992;DHT22;997;48.448;8.924;2023-03-13T04:54:30;10.40;99.90
1992;DHT22;997;48.448;8.924;2023-03-13T04:56:56;10.40;99.90
1992;DHT22;997;48.448;8.924;2023-03-13T04:59:21;10.40;99.90
1992;DHT22;997;48.448;8.924;2023-03-13T05:01:47;10.40;99.90
1992;DHT22;997;48.448;8.924;2023-03-13T05:04:12;10.50;99.90
1992;DHT22;997;48.448;8.924;2023-03-13T05:06:38;10.50;99.90
1992;DHT22;997;48.448;8.924;2023-03-13T05:09:04;10.50;99.90
1992;DHT22;997;48.448;8.924;2023-03-13T05:11:30;10.50;99.90
1992;DHT22;997;48.448;8.924;2023-03-13T05:13:55;10.50;99.90
1992;DHT22;997;48.448;8.924;2023-03-13T05:16:21;10.40;99.90
1992;DHT22;997;48.448;8.924;2023-03-13T05:18:47;10.40;99.90
1992;DHT22;997;48.448;8.924;2023-03-13T05:21:12;10.40;99.90
1992;DHT22;997;48.448;8.924;2023-03-13T05:23:38;10.40;99.90
1992;DHT22;997;48.448;8.924;2023-03-13T05:26:04;10.50;99.90
1992;DHT22;997;48.448;8.924;2023-03-13T05:28:30;10.40;99.90
1992;DHT22;997;48.448;8.924;2023-03-13T05:30:56;10.50;99.90
1992;DHT22;997;48.448;8.924;2023-03-13T05:33:21;10.60;99.90
1992;DHT22;997;48.448;8.924;2023-03-13T05:35:47;10.60;99.90
1992;DHT22;997;48.448;8.924;2023-03-13T05:38:13;10.60;99.90
1992;DHT22;997;48.448;8.924;2023-03-13T05:40:39;10.70;99.90
1992;DHT22;997;48.448;8.924;2023-03-13T05:43:05;10.70;99.90
1992;DHT22;997;48.448;8.924;2023-03-13T05:45:31;10.80;99.90
1992;DHT22;997;48.448;8.924;2023-03-13T05:47:56;10.70;99.90
1992;DHT22;997;48.448;8.924;2023-03-13T05:50:24;10.70;99.90
1992;DHT22;997;48.448;8.924;2023-03-13T05:52:50;10.80;99.90
1992;DHT22;997;48.448;8.924;2023-03-13T05:55:16;10.80;99.90
1992;DHT22;997;48.448;8.924;2023-03-13T05:57:45;10.80;99.90
1992;DHT22;997;48.448;8.924;2023-03-13T06:00:13;10.70;99.90
1992;DHT22;997;48.448;8.924;2023-03-13T06:02:39;10.70;99.90
1992;DHT22;997;48.448;8.924;2023-03-13T06:05:05;10.70;99.90
1992;DHT22;997;48.448;8.924;2023-03-13T06:07:31;10.80;99.90
1992;DHT22;997;48.448;8.924;2023-03-13T06:09:56;10.70;99.90
1992;DHT22;997;48.448;8.924;2023-03-13T06:12:22;10.70;99.90
1992;DHT22;997;48.448;8.924;2023-03-13T06:14:48;10.70;99.90
1992;DHT22;997;48.448;8.924;2023-03-13T06:17:13;10.70;99.90
1992;DHT22;997;48.448;8.924;2023-03-13T06:19:39;10.70;99.90
1992;DHT22;997;48.448;8.924;2023-03-13T06:22:04;10.60;99.90
1992;DHT22;997;48.448;8.924;2023-03-13T06:24:30;10.50;99.90
1992;DHT22;997;48.448;8.924;2023-03-13T06:26:56;10.50;99.90
1992;DHT22;997;48.448;8.924;2023-03-13T06:29:22;10.60;99.90
1992;DHT22;997;48.448;8.924;2023-03-13T06:31:49;10.50;99.90
1992;DHT22;997;48.448;8.924;2023-03-13T06:34:15;10.50;99.90
1992;DHT22;997;48.448;8.924;2023-03-13T06:36:41;10.60;99.90
1992;DHT22;997;48.448;8.924;2023-03-13T06:39:06;10.60;99.90
1992;DHT22;997;48.448;8.924;2023-03-13T06:41:32;10.60;99.90
1992;DHT22;997;48.448;8.924;2023-03-13T06:43:58;10.60;99.90
1992;DHT22;997;48.448;8.924;2023-03-13T06:46:24;10.60;99.90
1992;DHT22;997;48.448;8.924;2023-03-13T06:48:50;10.70;99.90
1992;DHT22;997;48.448;8.924;2023-03-13T06:51:20;10.60;99.90
1992;DHT22;997;48.448;8.924;2023-03-13T06:53:46;10.60;99.90
1992;DHT22;997;48.448;8.924;2023-03-13T06:56:12;10.70;99.90
1992;DHT22;997;48.448;8.924;2023-03-13T06:58:39;10.80;99.90
1992;DHT22;997;48.448;8.924;2023-03-13T07:01:06;10.80;99.90
1992;DHT22;997;48.448;8.924;2023-03-13T07:03:32;10.80;99.90
1992;DHT22;997;48.448;8.924;2023-03-13T07:05:57;10.80;99.90
1992;DHT22;997;48.448;8.924;2023-03-13T07:08:24;10.80;99.90
1992;DHT22;997;48.448;8.924;2023-03-13T07:10:50;10.90;99.90
1992;DHT22;997;48.448;8.924;2023-03-13T07:13:18;10.90;99.90
1992;DHT22;997;48.448;8.924;2023-03-13T07:15:46;10.90;99.90
1992;DHT22;997;48.448;8.924;2023-03-13T07:18:13;11.00;99.90
1992;DHT22;997;48.448;8.924;2023-03-13T07:20:38;11.10;99.90
1992;DHT22;997;48.448;8.924;2023-03-13T07:23:04;11.20;99.90
1992;DHT22;997;48.448;8.924;2023-03-13T07:25:30;11.30;99.90
1992;DHT22;997;48.448;8.924;2023-03-13T07:27:55;11.30;99.90
1992;DHT22;997;48.448;8.924;2023-03-13T07:30:22;11.30;99.90
1992;DHT22;997;48.448;8.924;2023-03-13T07:32:47;11.40;99.90
1992;DHT22;997;48.448;8.924;2023-03-13T07:35:14;11.40;99.90
1992;DHT22;997;48.448;8.924;2023-03-13T07:37:39;11.50;99.90
1992;DHT22;997;48.448;8.924;2023-03-13T07:40:05;11.50;99.90
1992;DHT22;997;48.448;8.924;2023-03-13T07:42:33;11.70;99.90
1992;DHT22;997;48.448;8.924;2023-03-13T07:44:59;11.80;99.90
1992;DHT22;997;48.448;8.924;2023-03-13T07:47:25;11.90;99.90
1992;DHT22;997;48.448;8.924;2023-03-13T07:49:50;12.00;99.90
1992;DHT22;997;48.448;8.924;2023-03-13T07:52:16;12.10;99.90
1992;DHT22;997;48.448;8.924;2023-03-13T07:54:42;12.20;99.90
1992;DHT22;997;48.448;8.924;2023-03-13T07:57:08;12.20;99.90
1992;DHT22;997;48.448;8.924;2023-03-13T07:59:33;12.30;99.90
1992;DHT22;997;48.448;8.924;2023-03-13T08:01:59;12.30;99.90
1992;DHT22;997;48.448;8.924;2023-03-13T08:04:25;12.40;99.90
1992;DHT22;997;48.448;8.924;2023-03-13T08:06:50;12.40;99.90
1992;DHT22;997;48.448;8.924;2023-03-13T08:09:16;12.40;99.90
1992;DHT22;997;48.448;8.924;2023-03-13T08:11:42;12.50;99.90
1992;DHT22;997;48.448;8.924;2023-03-13T08:14:11;12.60;99.90
1992;DHT22;997;48.448;8.924;2023-03-13T08:16:36;12.60;99.90
1992;DHT22;997;48.448;8.924;2023-03-13T08:19:04;12.60;99.90
1992;DHT22;997;48.448;8.924;2023-03-13T08:21:33;12.60;99.90
1992;DHT22;997;48.448;8.924;2023-03-13T08:24:01;12.70;99.90
1992;DHT22;997;48.448;8.924;2023-03-13T08:26:29;12.70;99.90
1992;DHT22;997;48.448;8.924;2023-03-13T08:29:00;12.80;99.90
1992;DHT22;997;48.448;8.924;2023-03-13T08:31:38;12.80;99.90
1992;DHT22;997;48.448;8.924;2023-03-13T08:34:06;12.90;99.90
1992;DHT22;997;48.448;8.924;2023-03-13T08:36:34;12.90;99.90
1992;DHT22;997;48.448;8.924;2023-03-13T08:39:10;12.90;99.90
1992;DHT22;997;48.448;8.924;2023-03-13T08:41:36;13.00;99.90
1992;DHT22;997;48.448;8.924;2023-03-13T08:44:03;13.00;99.90
1992;DHT22;997;48.448;8.924;2023-03-13T08:46:30;13.10;99.90
1992;DHT22;997;48.448;8.924;2023-03-13T08:48:56;13.10;99.90
1992;DHT22;997;48.448;8.924;2023-03-13T08:51:24;13.10;99.90
1992;DHT22;997;48.448;8.924;2023-03-13T08:53:50;13.10;99.90
1992;DHT22;997;48.448;8.924;2023-03-13T08:56:18;13.20;99.90
1992;DHT22;997;48.448;8.924;2023-03-13T08:58:48;13.40;99.90
1992;DHT22;997;48.448;8.924;2023-03-13T09:01:14;13.40;99.90
1992;DHT22;997;48.448;8.924;2023-03-13T09:03:41;13.50;99.90
1992;DHT22;997;48.448;8.924;2023-03-13T09:06:08;13.50;99.90
1992;DHT22;997;48.448;8.924;2023-03-13T09:08:35;13.70;99.90
1992;DHT22;997;48.448;8.924;2023-03-13T09:11:09;13.80;99.90
1992;DHT22;997;48.448;8.924;2023-03-13T09:13:38;13.90;99.90
1992;DHT22;997;48.448;8.924;2023-03-13T09:16:06;13.90;99.90
1992;DHT22;997;48.448;8.924;2023-03-13T09:18:33;14.00;99.90
1992;DHT22;997;48.448;8.924;2023-03-13T09:20:59;14.10;99.90
1992;DHT22;997;48.448;8.924;2023-03-13T09:23:25;14.30;99.90
1992;DHT22;997;48.448;8.924;2023-03-13T09:25:53;14.40;99.90
1992;DHT22;997;48.448;8.924;2023-03-13T09:28:19;14.50;99.90
1992;DHT22;997;48.448;8.924;2023-03-13T09:30:45;14.70;99.90
1992;DHT22;997;48.448;8.924;2023-03-13T09:33:10;14.90;99.90
1992;DHT22;997;48.448;8.924;2023-03-13T09:35:39;15.00;99.90
1992;DHT22;997;48.448;8.924;2023-03-13T09:38:05;15.10;99.90
1992;DHT22;997;48.448;8.924;2023-03-13T09:40:37;15.10;99.90
1992;DHT22;997;48.448;8.924;2023-03-13T09:44:01;15.10;99.90
1992;DHT22;997;48.448;8.924;2023-03-13T09:46:02;15.20;99.90
1992;DHT22;997;48.448;8.924;2023-03-13T09:48:40;15.20;99.90
1992;DHT22;997;48.448;8.924;2023-03-13T09:56:16;15.20;99.90
1992;DHT22;997;48.448;8.924;2023-03-13T09:59:16;15.20;99.90
1992;DHT22;997;48.448;8.924;2023-03-13T10:01:43;15.30;99.90
1992;DHT22;997;48.448;8.924;2023-03-13T10:04:45;15.50;99.90
1992;DHT22;997;48.448;8.924;2023-03-13T10:07:13;15.60;99.90
1992;DHT22;997;48.448;8.924;2023-03-13T10:09:39;15.70;99.90
1992;DHT22;997;48.448;8.924;2023-03-13T10:12:22;15.80;99.90
1992;DHT22;997;48.448;8.924;2023-03-13T10:17:46;15.90;99.90
1992;DHT22;997;48.448;8.924;2023-03-13T10:20:25;16.10;99.90
1992;DHT22;997;48.448;8.924;2023-03-13T10:23:06;16.30;99.90
1992;DHT22;997;48.448;8.924;2023-03-13T10:25:37;16.40;99.90
1992;DHT22;997;48.448;8.924;2023-03-13T10:28:04;16.40;99.90
1992;DHT22;997;48.448;8.924;2023-03-13T10:30:32;16.50;99.90
1992;DHT22;997;48.448;8.924;2023-03-13T10:33:26;16.60;99.90
1992;DHT22;997;48.448;8.924;2023-03-13T10:38:53;16.70;99.90
1992;DHT22;997;48.448;8.924;2023-03-13T10:41:26;16.70;99.90
1992;DHT22;997;48.448;8.924;2023-03-13T10:43:55;16.80;99.90
1992;DHT22;997;48.448;8.924;2023-03-13T10:46:29;17.00;99.90
1992;DHT22;997;48.448;8.924;2023-03-13T10:48:56;17.00;99.90
1992;DHT22;997;48.448;8.924;2023-03-13T10:51:34;17.10;99.90
1992;DHT22;997;48.448;8.924;2023-03-13T10:54:02;17.10;99.90
1992;DHT22;997;48.448;8.924;2023-03-13T10:56:37;17.10;99.90
1992;DHT22;997;48.448;8.924;2023-03-13T10:59:03;17.10;99.90
1992;DHT22;997;48.448;8.924;2023-03-13T11:01:41;17.10;99.90
1992;DHT22;997;48.448;8.924;2023-03-13T11:04:29;17.10;99.90
1992;DHT22;997;48.448;8.924;2023-03-13T11:07:13;17.10;99.90
1992;DHT22;997;48.448;8.924;2023-03-13T11:09:40;17.20;99.90
1992;DHT22;997;48.448;8.924;2023-03-13T11:12:16;17.20;99.90
1992;DHT22;997;48.448;8.924;2023-03-13T11:14:44;17.40;99.90
1992;DHT22;997;48.448;8.924;2023-03-13T11:20:36;17.60;99.90
1992;DHT22;997;48.448;8.924;2023-03-13T11:23:24;17.60;99.90
1992;DHT22;997;48.448;8.924;2023-03-13T11:26:05;17.70;99.90
1992;DHT22;997;48.448;8.924;2023-03-13T11:45:15;19.00;99.90
1992;DHT22;997;48.448;8.924;2023-03-13T12:01:27;19.40;99.90
1992;DHT22;997;48.448;8.924;2023-03-13T12:04:08;19.50;99.90
1992;DHT22;997;48.448;8.924;2023-03-13T12:06:44;19.50;99.90
1992;DHT22;997;48.448;8.924;2023-03-13T12:09:27;19.50;99.90
1992;DHT22;997;48.448;8.924;2023-03-13T12:12:32;19.60;99.90
1992;DHT22;997;48.448;8.924;2023-03-13T12:14:52;19.70;99.90
1992;DHT22;997;48.448;8.924;2023-03-13T12:17:33;19.60;99.90
1992;DHT22;997;48.448;8.924;2023-03-13T12:22:47;19.70;99.90
1992;DHT22;997;48.448;8.924;2023-03-13T12:25:20;19.70;99.90
1992;DHT22;997;48.448;8.924;2023-03-13T12:30:49;20.10;99.90
1992;DHT22;997;48.448;8.924;2023-03-13T12:41:39;20.50;99.90
1992;DHT22;997;48.448;8.924;2023-03-13T12:44:15;20.60;99.90
1992;DHT22;997;48.448;8.924;2023-03-13T12:46:45;20.60;99.90
1992;DHT22;997;48.448;8.924;2023-03-13T13:00:45;20.70;99.90
1992;DHT22;997;48.448;8.924;2023-03-13T13:08:26;21.10;99.90
1992;DHT22;997;48.448;8.924;2023-03-13T13:10:52;21.50;99.90
1992;DHT22;997;48.448;8.924;2023-03-13T13:13:28;21.60;99.90
1992;DHT22;997;48.448;8.924;2023-03-13T13:16:04;21.60;99.90
1992;DHT22;997;48.448;8.924;2023-03-13T13:18:31;21.70;99.90
1992;DHT22;997;48.448;8.924;2023-03-13T13:36:57;21.10;99.90
1992;DHT22;997;48.448;8.924;2023-03-13T13:39:38;21.10;99.90
1992;DHT22;997;48.448;8.924;2023-03-13T13:47:48;20.90;99.90
1992;DHT22;997;48.448;8.924;2023-03-13T13:52:48;20.90;99.90
1992;DHT22;997;48.448;8.924;2023-03-13T13:58:04;21.00;99.90
1992;DHT22;997;48.448;8.924;2023-03-13T14:00:42;21.00;99.90
1992;DHT22;997;48.448;8.924;2023-03-13T14:03:24;21.00;99.90
1992;DHT22;997;48.448;8.924;2023-03-13T14:06:17;21.10;99.90
1992;DHT22;997;48.448;8.924;2023-03-13T14:08:42;21.20;99.90
1992;DHT22;997;48.448;8.924;2023-03-13T14:13:39;21.40;99.90
1992;DHT22;997;48.448;8.924;2023-03-13T14:16:24;21.40;99.90
1992;DHT22;997;48.448;8.924;2023-03-13T14:18:51;21.70;99.90
1992;DHT22;997;48.448;8.924;2023-03-13T14:21:24;21.80;99.90
1992;DHT22;997;48.448;8.924;2023-03-13T14:23:51;21.90;99.90
1992;DHT22;997;48.448;8.924;2023-03-13T14:26:25;22.00;99.90
1992;DHT22;997;48.448;8.924;2023-03-13T14:28:57;22.00;99.90
1992;DHT22;997;48.448;8.924;2023-03-13T14:33:56;21.80;99.90
1992;DHT22;997;48.448;8.924;2023-03-13T14:36:22;21.90;99.90
1992;DHT22;997;48.448;8.924;2023-03-13T14:38:56;22.00;99.90
1992;DHT22;997;48.448;8.924;2023-03-13T14:41:35;22.00;99.90
1992;DHT22;997;48.448;8.924;2023-03-13T14:44:13;21.80;99.90
1992;DHT22;997;48.448;8.924;2023-03-13T14:46:40;21.70;99.90
1992;DHT22;997;48.448;8.924;2023-03-13T14:49:14;21.50;99.90
1992;DHT22;997;48.448;8.924;2023-03-13T14:51:41;21.40;99.90
1992;DHT22;997;48.448;8.924;2023-03-13T14:54:27;21.30;99.90
1992;DHT22;997;48.448;8.924;2023-03-13T14:57:13;21.00;99.90
1992;DHT22;997;48.448;8.924;2023-03-13T14:59:41;20.90;99.90
1992;DHT22;997;48.448;8.924;2023-03-13T15:02:18;20.70;99.90
1992;DHT22;997;48.448;8.924;2023-03-13T15:04:57;20.50;99.90
1992;DHT22;997;48.448;8.924;2023-03-13T15:10:33;20.50;99.90
1992;DHT22;997;48.448;8.924;2023-03-13T15:15:49;20.40;99.90
1992;DHT22;997;48.448;8.924;2023-03-13T15:20:57;20.30;99.90
1992;DHT22;997;48.448;8.924;2023-03-13T15:23:23;20.20;99.90
1992;DHT22;997;48.448;8.924;2023-03-13T15:25:49;20.10;99.90
1992;DHT22;997;48.448;8.924;2023-03-13T15:28:18;20.00;99.90
1992;DHT22;997;48.448;8.924;2023-03-13T15:30:48;19.90;99.90
1992;DHT22;997;48.448;8.924;2023-03-13T15:33:17;19.80;99.90
1992;DHT22;997;48.448;8.924;2023-03-13T15:35:47;19.80;99.90
1992;DHT22;997;48.448;8.924;2023-03-13T15:38:18;19.70;99.90
1992;DHT22;997;48.448;8.924;2023-03-13T15:40:45;19.70;99.90
1992;DHT22;997;48.448;8.924;2023-03-13T15:43:14;19.90;99.90
1992;DHT22;997;48.448;8.924;2023-03-13T15:45:42;20.10;99.90
1992;DHT22;997;48.448;8.924;2023-03-13T15:48:13;20.20;99.90
1992;DHT22;997;48.448;8.924;2023-03-13T15:50:40;20.20;99.90
1992;DHT22;997;48.448;8.924;2023-03-13T15:53:17;20.10;99.90
1992;DHT22;997;48.448;8.924;2023-03-13T15:55:46;20.00;99.90
1992;DHT22;997;48.448;8.924;2023-03-13T15:58:13;19.90;99.90
1992;DHT22;997;48.448;8.924;2023-03-13T16:00:40;19.90;99.90
1992;DHT22;997;48.448;8.924;2023-03-13T16:03:08;20.10;99.90
1992;DHT22;997;48.448;8.924;2023-03-13T16:05:34;20.40;99.90
1992;DHT22;997;48.448;8.924;2023-03-13T16:08:00;20.80;99.90
1992;DHT22;997;48.448;8.924;2023-03-13T16:10:27;21.50;99.90
1992;DHT22;997;48.448;8.924;2023-03-13T16:12:54;21.90;99.90
1992;DHT22;997;48.448;8.924;2023-03-13T16:15:19;22.20;99.90
1992;DHT22;997;48.448;8.924;2023-03-13T16:17:45;22.80;99.90
1992;DHT22;997;48.448;8.924;2023-03-13T16:20:21;23.50;99.90
1992;DHT22;997;48.448;8.924;2023-03-13T16:23:03;24.10;99.90
1992;DHT22;997;48.448;8.924;2023-03-13T16:25:30;24.80;99.90
1992;DHT22;997;48.448;8.924;2023-03-13T16:27:57;24.80;99.90
1992;DHT22;997;48.448;8.924;2023-03-13T16:30:25;24.40;99.90
1992;DHT22;997;48.448;8.924;2023-03-13T16:32:51;23.90;99.90
1992;DHT22;997;48.448;8.924;2023-03-13T16:35:16;23.20;99.90
1992;DHT22;997;48.448;8.924;2023-03-13T16:37:42;22.50;99.90
1992;DHT22;997;48.448;8.924;2023-03-13T16:40:15;21.90;99.90
1992;DHT22;997;48.448;8.924;2023-03-13T16:42:42;21.40;99.90
1992;DHT22;997;48.448;8.924;2023-03-13T16:45:08;20.90;99.90
1992;DHT22;997;48.448;8.924;2023-03-13T16:47:34;20.70;99.90
1992;DHT22;997;48.448;8.924;2023-03-13T16:50:01;20.40;99.90
1992;DHT22;997;48.448;8.924;2023-03-13T16:52:26;20.30;99.90
1992;DHT22;997;48.448;8.924;2023-03-13T16:54:52;20.20;99.90
1992;DHT22;997;48.448;8.924;2023-03-13T16:57:22;20.10;99.90
1992;DHT22;997;48.448;8.924;2023-03-13T16:59:49;20.00;99.90
1992;DHT22;997;48.448;8.924;2023-03-13T17:02:17;19.90;99.90
1992;DHT22;997;48.448;8.924;2023-03-13T17:04:43;19.80;99.90
1992;DHT22;997;48.448;8.924;2023-03-13T17:07:21;19.70;99.90
1992;DHT22;997;48.448;8.924;2023-03-13T17:09:48;19.50;99.90
1992;DHT22;997;48.448;8.924;2023-03-13T17:12:15;19.40;99.90
1992;DHT22;997;48.448;8.924;2023-03-13T17:14:40;19.30;99.90
1992;DHT22;997;48.448;8.924;2023-03-13T17:17:11;19.30;99.90
1992;DHT22;997;48.448;8.924;2023-03-13T17:19:37;19.10;99.90
1992;DHT22;997;48.448;8.924;2023-03-13T17:22:03;19.10;99.90
1992;DHT22;997;48.448;8.924;2023-03-13T17:24:28;19.10;99.90
1992;DHT22;997;48.448;8.924;2023-03-13T17:26:54;19.10;99.90
1992;DHT22;997;48.448;8.924;2023-03-13T17:29:20;19.00;99.90
1992;DHT22;997;48.448;8.924;2023-03-13T17:31:48;18.90;99.90
1992;DHT22;997;48.448;8.924;2023-03-13T17:34:14;18.90;99.90
1992;DHT22;997;48.448;8.924;2023-03-13T17:36:41;18.90;99.90
1992;DHT22;997;48.448;8.924;2023-03-13T17:39:12;18.80;99.90
1992;DHT22;997;48.448;8.924;2023-03-13T17:41:38;18.80;99.90
1992;DHT22;997;48.448;8.924;2023-03-13T17:44:04;18.60;99.90
1992;DHT22;997;48.448;8.924;2023-03-13T17:46:57;18.60;99.90
1992;DHT22;997;48.448;8.924;2023-03-13T17:49:23;18.40;99.90
1992;DHT22;997;48.448;8.924;2023-03-13T17:51:49;18.30;99.90
1992;DHT22;997;48.448;8.924;2023-03-13T17:54:16;18.20;99.90
1992;DHT22;997;48.448;8.924;2023-03-13T17:56:43;18.20;99.90
1992;DHT22;997;48.448;8.924;2023-03-13T17:59:15;18.20;99.90
1992;DHT22;997;48.448;8.924;2023-03-13T18:01:41;18.20;99.90
1992;DHT22;997;48.448;8.924;2023-03-13T18:04:08;18.10;99.90
1992;DHT22;997;48.448;8.924;2023-03-13T18:06:40;18.10;99.90
1992;DHT22;997;48.448;8.924;2023-03-13T18:09:20;18.10;99.90
1992;DHT22;997;48.448;8.924;2023-03-13T18:11:47;18.20;99.90
1992;DHT22;997;48.448;8.924;2023-03-13T18:14:13;18.30;99.90
1992;DHT22;997;48.448;8.924;2023-03-13T18:16:42;18.30;99.90
1992;DHT22;997;48.448;8.924;2023-03-13T18:19:23;18.40;99.90
1992;DHT22;997;48.448;8.924;2023-03-13T18:21:53;18.40;99.90
1992;DHT22;997;48.448;8.924;2023-03-13T18:24:20;18.30;99.90
1992;DHT22;997;48.448;8.924;2023-03-13T18:26:47;18.10;99.90
1992;DHT22;997;48.448;8.924;2023-03-13T18:29:17;18.10;99.90
1992;DHT22;997;48.448;8.924;2023-03-13T18:31:45;18.00;99.90
1992;DHT22;997;48.448;8.924;2023-03-13T18:34:12;18.00;99.90
1992;DHT22;997;48.448;8.924;2023-03-13T18:36:39;18.00;99.90
1992;DHT22;997;48.448;8.924;2023-03-13T18:39:07;17.40;99.90
1992;DHT22;997;48.448;8.924;2023-03-13T18:41:33;16.60;99.90
1992;DHT22;997;48.448;8.924;2023-03-13T18:43:58;16.10;99.90
1992;DHT22;997;48.448;8.924;2023-03-13T18:46:27;15.60;99.90
1992;DHT22;997;48.448;8.924;2023-03-13T18:48:56;15.30;99.90
1992;DHT22;997;48.448;8.924;2023-03-13T18:51:23;15.10;99.90
1992;DHT22;997;48.448;8.924;2023-03-13T18:53:50;15.10;99.90
1992;DHT22;997;48.448;8.924;2023-03-13T18:58:48;15.10;99.90
1992;DHT22;997;48.448;8.924;2023-03-13T19:01:16;15.10;99.90
1992;DHT22;997;48.448;8.924;2023-03-13T19:03:42;15.10;99.90
1992;DHT22;997;48.448;8.924;2023-03-13T19:06:26;15.30;99.90
1992;DHT22;997;48.448;8.924;2023-03-13T19:08:58;15.60;99.90
1992;DHT22;997;48.448;8.924;2023-03-13T19:11:29;15.70;99.90
1992;DHT22;997;48.448;8.924;2023-03-13T19:13:55;15.80;99.90
1992;DHT22;997;48.448;8.924;2023-03-13T19:18:52;15.90;99.90
1992;DHT22;997;48.448;8.924;2023-03-13T19:21:26;16.00;99.90
1992;DHT22;997;48.448;8.924;2023-03-13T19:23:52;16.00;99.90
1992;DHT22;997;48.448;8.924;2023-03-13T19:26:43;16.10;99.90
1992;DHT22;997;48.448;8.924;2023-03-13T19:29:12;16.10;99.90
1992;DHT22;997;48.448;8.924;2023-03-13T19:31:38;16.00;99.90
1992;DHT22;997;48.448;8.924;2023-03-13T19:34:04;15.80;99.90
1992;DHT22;997;48.448;8.924;2023-03-13T19:36:34;15.80;99.90
1992;DHT22;997;48.448;8.924;2023-03-13T19:39:01;15.60;99.90
1992;DHT22;997;48.448;8.924;2023-03-13T19:41:27;15.50;99.90
1992;DHT22;997;48.448;8.924;2023-03-13T19:43:53;15.40;99.90
1992;DHT22;997;48.448;8.924;2023-03-13T19:48:47;15.10;99.90
1992;DHT22;997;48.448;8.924;2023-03-13T19:51:13;15.00;99.90
1992;DHT22;997;48.448;8.924;2023-03-13T19:54:04;14.60;99.90
1992;DHT22;997;48.448;8.924;2023-03-13T19:56:31;13.90;99.90
1992;DHT22;997;48.448;8.924;2023-03-13T19:59:05;13.00;99.90
1992;DHT22;997;48.448;8.924;2023-03-13T20:01:31;12.50;99.90
1992;DHT22;997;48.448;8.924;2023-03-13T20:03:57;12.40;99.90
1992;DHT22;997;48.448;8.924;2023-03-13T20:06:25;12.40;99.90
1992;DHT22;997;48.448;8.924;2023-03-13T20:09:00;12.20;99.90
1992;DHT22;997;48.448;8.924;2023-03-13T20:11:27;12.10;99.90
1992;DHT22;997;48.448;8.924;2023-03-13T20:13:53;12.20;99.90
1992;DHT22;997;48.448;8.924;2023-03-13T20:16:20;12.10;99.90
1992;DHT22;997;48.448;8.924;2023-03-13T20:18:51;12.20;99.90
1992;DHT22;997;48.448;8.924;2023-03-13T20:21:17;12.00;99.90
1992;DHT22;997;48.448;8.924;2023-03-13T20:23:44;11.60;99.90
1992;DHT22;997;48.448;8.924;2023-03-13T20:26:12;11.00;99.90
1992;DHT22;997;48.448;8.924;2023-03-13T20:28:43;10.40;99.90
1992;DHT22;997;48.448;8.924;2023-03-13T20:31:10;10.20;99.90
1992;DHT22;997;48.448;8.924;2023-03-13T20:33:36;10.10;99.90
1992;DHT22;997;48.448;8.924;2023-03-13T20:36:08;10.00;99.90
1992;DHT22;997;48.448;8.924;2023-03-13T20:38:35;10.10;99.90
1992;DHT22;997;48.448;8.924;2023-03-13T20:41:02;10.10;99.90
1992;DHT22;997;48.448;8.924;2023-03-13T20:43:28;10.30;99.90
1992;DHT22;997;48.448;8.924;2023-03-13T20:45:54;10.40;99.90
1992;DHT22;997;48.448;8.924;2023-03-13T20:48:20;10.60;99.90
1992;DHT22;997;48.448;8.924;2023-03-13T20:50:49;10.90;99.90
1992;DHT22;997;48.448;8.924;2023-03-13T20:53:17;11.10;99.90
1992;DHT22;997;48.448;8.924;2023-03-13T20:55:42;11.10;99.90
1992;DHT22;997;48.448;8.924;2023-03-13T20:58:10;11.10;99.90
1992;DHT22;997;48.448;8.924;2023-03-13T21:00:40;11.30;99.90
1992;DHT22;997;48.448;8.924;2023-03-13T21:03:06;11.40;99.90
1992;DHT22;997;48.448;8.924;2023-03-13T21:05:32;11.40;99.90
1992;DHT22;997;48.448;8.924;2023-03-13T21:07:57;11.40;99.90
1992;DHT22;997;48.448;8.924;2023-03-13T21:10:23;11.30;99.90
1992;DHT22;997;48.448;8.924;2023-03-13T21:12:49;11.00;99.90
1992;DHT22;997;48.448;8.924;2023-03-13T21:15:14;10.80;99.90
1992;DHT22;997;48.448;8.924;2023-03-13T21:17:40;10.60;99.90
1992;DHT22;997;48.448;8.924;2023-03-13T21:20:08;10.60;99.90
1992;DHT22;997;48.448;8.924;2023-03-13T21:22:41;10.50;99.90
1992;DHT22;997;48.448;8.924;2023-03-13T21:25:09;10.60;99.90
1992;DHT22;997;48.448;8.924;2023-03-13T21:27:35;10.50;99.90
1992;DHT22;997;48.448;8.924;2023-03-13T21:30:03;10.50;99.90
1992;DHT22;997;48.448;8.924;2023-03-13T21:32:29;10.60;99.90
1992;DHT22;997;48.448;8.924;2023-03-13T21:34:54;10.70;99.90
1992;DHT22;997;48.448;8.924;2023-03-13T21:37:20;10.80;99.90
1992;DHT22;997;48.448;8.924;2023-03-13T21:39:50;10.80;99.90
1992;DHT22;997;48.448;8.924;2023-03-13T21:42:16;10.80;99.90
1992;DHT22;997;48.448;8.924;2023-03-13T21:44:42;10.80;99.90
1992;DHT22;997;48.448;8.924;2023-03-13T21:47:09;10.80;99.90
1992;DHT22;997;48.448;8.924;2023-03-13T21:49:34;10.70;99.90
1992;DHT22;997;48.448;8.924;2023-03-13T21:52:00;10.60;99.90
1992;DHT22;997;48.448;8.924;2023-03-13T21:54:26;10.70;99.90
1992;DHT22;997;48.448;8.924;2023-03-13T21:56:52;10.70;99.90
1992;DHT22;997;48.448;8.924;2023-03-13T21:59:19;10.70;99.90
1992;DHT22;997;48.448;8.924;2023-03-13T22:01:46;10.70;99.90
1992;DHT22;997;48.448;8.924;2023-03-13T22:04:12;10.70;99.90
1992;DHT22;997;48.448;8.924;2023-03-13T22:06:38;10.70;99.90
1992;DHT22;997;48.448;8.924;2023-03-13T22:09:04;10.70;99.90
1992;DHT22;997;48.448;8.924;2023-03-13T22:11:31;10.80;99.90
1992;DHT22;997;48.448;8.924;2023-03-13T22:13:57;10.80;99.90
